Time;durP1;ratioP1;P1;durP2;ratioP2;P2;SDS_P1;SDS_P2;PMS_P1;PMS_P2;Temp;Humidity;BMP_temperature;BMP_pressure;BME280_temperature;BME280_humidity;BME280_pressure;Samples;Min_cycle;Max_cycle;Signal;HPM_P1;HPM_P2
2021/01/04 05:02:48;;;;;;;1999.90;999.90;;;2.50;99.90;;;;;;4898282;23;20333;-76
2021/01/04 05:05:22;;;;;;;1999.90;999.90;;;3.50;99.90;;;;;;4898226;29;20215;-78
2021/01/04 05:07:54;;;;;;;1999.90;999.90;;;3.50;99.90;;;;;;4898113;29;20240;-77
2021/01/04 05:10:25;;;;;;;1999.90;999.90;;;3.50;99.90;;;;;;4897798;29;20247;-77
2021/01/04 05:13:00;;;;;;;1999.90;999.90;;;3.50;99.90;;;;;;4898321;29;20271;-77
2021/01/04 05:15:40;;;;;;;1999.90;999.90;;;3.50;99.90;;;;;;4898814;29;20220;-77
2021/01/04 05:18:35;;;;;;;1999.90;999.90;;;3.70;99.90;;;;;;4900558;29;20271;-77
2021/01/04 05:21:47;;;;;;;1999.90;999.90;;;3.60;99.90;;;;;;4900354;29;20223;-76
2021/01/04 05:24:54;;;;;;;1999.90;999.90;;;3.50;99.90;;;;;;4900693;29;20211;-77
2021/01/04 05:27:45;;;;;;;1999.90;999.90;;;3.50;99.90;;;;;;4876515;29;20218;-77
2021/01/04 05:30:26;;;;;;;1999.90;999.90;;;3.40;99.90;;;;;;4901051;29;20327;-76
2021/01/04 05:33:39;;;;;;;1999.90;999.90;;;3.40;99.90;;;;;;4901196;29;20223;-76
2021/01/04 05:36:19;;;;;;;1999.90;999.90;;;3.30;99.90;;;;;;4901514;29;20211;-77
2021/01/04 05:38:55;;;;;;;1999.90;999.90;;;3.20;99.90;;;;;;4901571;29;20211;-76
2021/01/04 05:41:51;;;;;;;1999.90;999.90;;;3.10;99.90;;;;;;4900629;29;20226;-79
2021/01/04 05:44:40;;;;;;;1999.90;999.90;;;3.20;99.90;;;;;;4900314;29;20208;-77
2021/01/04 05:47:26;;;;;;;1999.90;999.90;;;3.30;99.90;;;;;;4900711;29;20588;-76
2021/01/04 05:49:59;;;;;;;1999.90;999.90;;;3.40;99.90;;;;;;4900589;29;20211;-77
2021/01/04 05:52:27;;;;;;;1999.90;999.90;;;3.40;99.90;;;;;;4900364;29;20239;-75
2021/01/04 05:54:54;;;;;;;1999.90;999.90;;;3.40;99.90;;;;;;4899815;29;20219;-77
2021/01/04 05:57:21;;;;;;;1999.90;999.90;;;3.60;99.90;;;;;;4900576;29;20270;-75
2021/01/04 05:59:49;;;;;;;1999.90;999.90;;;3.40;99.90;;;;;;4900043;29;20215;-77
2021/01/04 06:02:26;;;;;;;1999.90;999.90;;;3.50;99.90;;;;;;4899632;29;20235;-78
2021/01/04 06:05:06;;;;;;;1999.90;999.90;;;3.40;99.90;;;;;;4895972;29;20271;-76
2021/01/04 06:07:35;;;;;;;1999.90;999.90;;;3.50;99.90;;;;;;4881140;29;20697;-76
2021/01/04 06:10:02;;;;;;;1999.90;999.90;;;3.70;99.90;;;;;;4881774;29;20284;-77
2021/01/04 06:12:35;;;;;;;1999.90;999.90;;;3.80;99.90;;;;;;4881164;29;20239;-76
2021/01/04 06:15:05;;;;;;;1999.90;999.90;;;3.70;99.90;;;;;;4881478;29;20666;-78
2021/01/04 06:17:35;;;;;;;1999.90;999.90;;;3.70;99.90;;;;;;4881359;29;20288;-76
2021/01/04 06:20:20;;;;;;;1999.90;999.90;;;3.80;99.90;;;;;;4881303;29;20215;-76
2021/01/04 06:22:49;;;;;;;1999.90;999.90;;;3.70;99.90;;;;;;4880978;29;20745;-77
2021/01/04 06:25:18;;;;;;;1999.90;999.90;;;3.80;99.90;;;;;;4880771;29;20204;-76
2021/01/04 06:27:47;;;;;;;1999.90;999.90;;;3.70;99.90;;;;;;4880996;29;20271;-77
2021/01/04 06:30:29;;;;;;;1999.90;999.90;;;3.60;99.90;;;;;;4884085;29;20829;-76
2021/01/04 06:33:04;;;;;;;1999.90;999.90;;;3.70;99.90;;;;;;4885991;29;20232;-75
2021/01/04 06:35:33;;;;;;;1999.90;999.90;;;3.80;99.90;;;;;;4886377;29;20753;-77
2021/01/04 06:38:06;;;;;;;1999.90;999.90;;;3.70;99.90;;;;;;4886180;29;20596;-76
2021/01/04 06:40:36;;;;;;;1999.90;999.90;;;3.70;99.90;;;;;;4886986;29;20224;-77
2021/01/04 06:43:20;;;;;;;1999.90;999.90;;;3.80;99.90;;;;;;4886387;29;20260;-79
2021/01/04 06:46:01;;;;;;;1999.90;999.90;;;3.70;99.90;;;;;;4899513;29;20270;-76
2021/01/04 06:48:36;;;;;;;1999.90;999.90;;;3.80;99.90;;;;;;4914510;29;20242;-76
2021/01/04 06:51:26;;;;;;;1999.90;999.90;;;4.00;99.90;;;;;;4913620;29;20215;-77
2021/01/04 06:54:14;;;;;;;1999.90;999.90;;;3.90;99.90;;;;;;4918806;29;20207;-78
2021/01/04 06:57:18;;;;;;;1999.90;999.90;;;4.00;99.90;;;;;;4922719;29;20213;-78
2021/01/04 07:00:03;;;;;;;1999.90;999.90;;;4.00;99.90;;;;;;4918610;29;20206;-80
2021/01/04 07:03:09;;;;;;;1999.90;999.90;;;3.90;99.90;;;;;;4918180;29;20285;-76
2021/01/04 07:05:53;;;;;;;1999.90;999.90;;;3.90;99.90;;;;;;4916633;29;20202;-77
2021/01/04 07:09:02;;;;;;;1999.90;999.90;;;3.80;99.90;;;;;;4916886;29;20214;-78
2021/01/04 07:11:38;;;;;;;1999.90;999.90;;;3.60;99.90;;;;;;4920814;29;20230;-79
2021/01/04 07:14:31;;;;;;;1999.90;999.90;;;3.70;99.90;;;;;;4920294;29;20218;-79
2021/01/04 07:17:15;;;;;;;1999.90;999.90;;;3.70;99.90;;;;;;4921365;29;20239;-78
2021/01/04 07:19:58;;;;;;;1999.90;999.90;;;3.80;99.90;;;;;;4920448;29;20215;-77
2021/01/04 07:22:37;;;;;;;1999.90;999.90;;;3.50;99.90;;;;;;4908568;29;20227;-78
2021/01/04 07:25:18;;;;;;;1999.90;999.90;;;3.60;99.90;;;;;;4903903;29;20259;-78
2021/01/04 07:27:50;;;;;;;1999.90;999.90;;;3.70;99.90;;;;;;4903022;29;20247;-80
2021/01/04 07:30:44;;;;;;;1999.90;999.90;;;3.80;99.90;;;;;;4902344;29;20212;-77
2021/01/04 07:33:22;;;;;;;1999.90;999.90;;;3.80;99.90;;;;;;4899526;29;20237;-77
2021/01/04 07:35:57;;;;;;;1999.90;999.90;;;3.80;99.90;;;;;;4900317;29;20211;-77
2021/01/04 07:38:35;;;;;;;1999.90;999.90;;;3.80;99.90;;;;;;4898473;29;20676;-77
2021/01/04 07:41:18;;;;;;;1999.90;999.90;;;3.80;99.90;;;;;;4907239;29;20591;-77
2021/01/04 07:44:14;;;;;;;1999.90;999.90;;;3.80;99.90;;;;;;4907445;29;20203;-76
2021/01/04 07:47:36;;;;;;;1999.90;999.90;;;3.90;99.90;;;;;;4906220;29;20262;-77
2021/01/04 07:50:35;;;;;;;1999.90;999.90;;;3.90;99.90;;;;;;4872052;29;20330;-77
2021/01/04 07:53:55;;;;;;;1999.90;999.90;;;3.90;99.90;;;;;;4904996;29;20227;-77
2021/01/04 07:57:09;;;;;;;1999.90;999.90;;;4.00;99.90;;;;;;4907949;29;20627;-76
2021/01/04 07:59:52;;;;;;;1999.90;999.90;;;3.90;99.90;;;;;;4917736;29;20623;-77
2021/01/04 08:02:55;;;;;;;1999.90;999.90;;;3.90;99.90;;;;;;4917834;29;20235;-77
2021/01/04 08:05:54;;;;;;;1999.90;999.90;;;3.90;99.90;;;;;;4918029;29;20261;-78
2021/01/04 08:08:39;;;;;;;1999.90;999.90;;;3.90;99.90;;;;;;4917587;29;20211;-77
2021/01/04 08:11:42;;;;;;;1999.90;999.90;;;3.90;99.90;;;;;;4911606;29;20218;-76
2021/01/04 08:14:56;;;;;;;1999.90;999.90;;;3.90;99.90;;;;;;4906851;29;20203;-76
2021/01/04 08:17:38;;;;;;;1999.90;999.90;;;3.90;99.90;;;;;;4811052;29;20202;-77
2021/01/04 08:20:08;;;;;;;1999.90;999.90;;;3.80;99.90;;;;;;4892907;29;20697;-77
2021/01/04 08:22:52;;;;;;;1999.90;999.90;;;3.70;99.90;;;;;;4910716;29;20223;-76
2021/01/04 08:25:31;;;;;;;1999.90;999.90;;;3.70;99.90;;;;;;4917582;29;20732;-77
2021/01/04 08:28:09;;;;;;;1999.90;999.90;;;3.60;99.90;;;;;;4917496;29;20589;-77
2021/01/04 08:30:41;;;;;;;1999.90;999.90;;;3.70;99.90;;;;;;4917377;29;20231;-77
2021/01/04 08:33:16;;;;;;;1999.90;999.90;;;3.70;99.90;;;;;;4917576;29;20230;-77
2021/01/04 08:35:45;;;;;;;1999.90;999.90;;;3.60;99.90;;;;;;4917464;29;20635;-76
2021/01/04 08:38:18;;;;;;;1999.90;999.90;;;3.60;99.90;;;;;;4916937;29;20243;-76
2021/01/04 08:40:57;;;;;;;1999.90;999.90;;;3.70;99.90;;;;;;4916332;29;20227;-75
2021/01/04 08:43:34;;;;;;;1999.90;999.90;;;3.80;99.90;;;;;;4915612;29;20617;-76
2021/01/04 08:46:27;;;;;;;1999.90;999.90;;;3.50;99.90;;;;;;4916710;29;20206;-78
2021/01/04 08:48:56;;;;;;;1999.90;999.90;;;3.60;99.90;;;;;;4916192;29;20222;-78
2021/01/04 08:51:30;;;;;;;1999.90;999.90;;;3.70;99.90;;;;;;4919314;29;20309;-77
2021/01/04 08:54:03;;;;;;;1999.90;999.90;;;3.70;99.90;;;;;;4917165;29;20357;-78
2021/01/04 08:56:36;;;;;;;1999.90;999.90;;;3.80;99.90;;;;;;4920478;29;20194;-78
2021/01/04 08:59:09;;;;;;;1999.90;999.90;;;3.90;99.90;;;;;;4919731;29;20202;-78
2021/01/04 09:01:46;;;;;;;1999.90;999.90;;;3.90;99.90;;;;;;4919884;29;20238;-78
2021/01/04 09:04:35;;;;;;;1999.90;999.90;;;3.90;99.90;;;;;;4919455;29;20266;-79
2021/01/04 09:07:07;;;;;;;1999.90;999.90;;;3.80;99.90;;;;;;4919706;29;20207;-80
2021/01/04 09:09:40;;;;;;;1999.90;999.90;;;3.80;99.90;;;;;;4916284;29;20199;-78
2021/01/04 09:12:17;;;;;;;1999.90;999.90;;;3.70;99.90;;;;;;4898609;29;20222;-78
2021/01/04 09:14:50;;;;;;;1999.90;999.90;;;3.70;99.90;;;;;;4901023;29;20219;-77
2021/01/04 09:17:30;;;;;;;1999.90;999.90;;;3.80;99.90;;;;;;4901707;29;20343;-78
2021/01/04 09:20:15;;;;;;;1999.90;999.90;;;3.80;99.90;;;;;;4900759;29;20571;-78
2021/01/04 09:22:42;;;;;;;1999.90;999.90;;;3.90;99.90;;;;;;4900315;29;20211;-77
2021/01/04 09:25:22;;;;;;;1999.90;999.90;;;3.80;99.90;;;;;;4900145;29;20892;-79
2021/01/04 09:27:51;;;;;;;1999.90;999.90;;;3.40;99.90;;;;;;4900941;29;20587;-78
2021/01/04 09:30:24;;;;;;;1999.90;999.90;;;3.70;99.90;;;;;;4900708;29;20211;-78
2021/01/04 09:33:09;;;;;;;1999.90;999.90;;;3.70;99.90;;;;;;4901028;29;20234;-79
2021/01/04 09:35:36;;;;;;;1999.90;999.90;;;3.80;99.90;;;;;;4900534;29;20205;-77
2021/01/04 09:38:05;;;;;;;1999.90;999.90;;;3.80;99.90;;;;;;4899523;29;20665;-77
2021/01/04 09:40:33;;;;;;;1999.90;999.90;;;3.80;99.90;;;;;;4899683;29;20295;-79
2021/01/04 09:43:05;;;;;;;1999.90;999.90;;;3.80;99.90;;;;;;4900336;29;20958;-79
2021/01/04 09:45:32;;;;;;;1999.90;999.90;;;3.90;99.90;;;;;;4901039;29;20211;-80
2021/01/04 09:48:02;;;;;;;1999.90;999.90;;;3.80;99.90;;;;;;4901948;29;20648;-78
2021/01/04 09:50:32;;;;;;;1999.90;999.90;;;3.70;99.90;;;;;;4902960;29;20212;-79
2021/01/04 09:53:03;;;;;;;1999.90;999.90;;;3.90;99.90;;;;;;4902945;29;20291;-78
2021/01/04 09:55:34;;;;;;;1999.90;999.90;;;3.90;99.90;;;;;;4903109;29;20207;-78
2021/01/04 09:58:03;;;;;;;1999.90;999.90;;;3.80;99.90;;;;;;4899175;29;20358;-80
2021/01/04 10:00:32;;;;;;;1999.90;999.90;;;4.00;99.90;;;;;;4918509;29;20588;-81
2021/01/04 10:03:03;;;;;;;1999.90;999.90;;;4.00;99.90;;;;;;4920948;29;20298;-80
2021/01/04 10:05:37;;;;;;;1999.90;999.90;;;3.80;99.90;;;;;;4921791;29;20239;-81
2021/01/04 10:08:08;;;;;;;1999.90;999.90;;;4.00;99.90;;;;;;4919498;29;20214;-80
2021/01/04 10:10:38;;;;;;;1999.90;999.90;;;4.00;99.90;;;;;;4919262;29;20294;-81
2021/01/04 10:13:07;;;;;;;1999.90;999.90;;;4.00;99.90;;;;;;4920462;29;20226;-81
2021/01/04 10:15:35;;;;;;;1999.90;999.90;;;4.00;99.90;;;;;;4923427;29;20206;-80
2021/01/04 10:18:16;;;;;;;1999.90;999.90;;;4.00;99.90;;;;;;4922193;29;20242;-80
2021/01/04 10:20:49;;;;;;;1999.90;999.90;;;3.90;99.90;;;;;;4923820;29;20231;-80
2021/01/04 10:23:31;;;;;;;1999.90;999.90;;;4.00;99.90;;;;;;4922010;29;20258;-80
2021/01/04 10:26:18;;;;;;;1999.90;999.90;;;3.90;99.90;;;;;;4921271;29;20300;-78
2021/01/04 10:28:45;;;;;;;1999.90;999.90;;;3.80;99.90;;;;;;4922154;29;20211;-80
2021/01/04 10:31:21;;;;;;;1999.90;999.90;;;3.90;99.90;;;;;;4922065;29;20290;-79
2021/01/04 10:33:48;;;;;;;1999.90;999.90;;;3.90;99.90;;;;;;4924073;29;20222;-79
2021/01/04 10:36:23;;;;;;;1999.90;999.90;;;4.00;99.90;;;;;;4924151;29;20231;-83
2021/01/04 10:38:58;;;;;;;1999.90;999.90;;;3.80;99.90;;;;;;4922972;29;20210;-79
2021/01/04 10:41:28;;;;;;;1999.90;999.90;;;3.90;99.90;;;;;;4912533;29;20648;-78
2021/01/04 10:44:11;;;;;;;1999.90;999.90;;;3.80;99.90;;;;;;4902278;29;20203;-79
2021/01/04 10:46:40;;;;;;;1999.90;999.90;;;3.90;99.90;;;;;;4904830;29;20207;-79
2021/01/04 10:49:10;;;;;;;1999.90;999.90;;;3.70;99.90;;;;;;4904318;29;20271;-76
2021/01/04 10:51:40;;;;;;;1999.90;999.90;;;3.80;99.90;;;;;;4901521;29;20231;-79
2021/01/04 10:54:15;;;;;;;1999.90;999.90;;;3.70;99.90;;;;;;4903522;29;20268;-81
2021/01/04 10:56:52;;;;;;;1999.90;999.90;;;3.70;99.90;;;;;;4900295;29;20210;-79
2021/01/04 10:59:27;;;;;;;1999.90;999.90;;;3.60;99.90;;;;;;4900746;29;20246;-79
2021/01/04 11:01:56;;;;;;;1999.90;999.90;;;3.70;99.90;;;;;;4899862;29;20231;-82
2021/01/04 11:04:24;;;;;;;1999.90;999.90;;;3.80;99.90;;;;;;4903211;29;20207;-80
2021/01/04 11:07:08;;;;;;;1999.90;999.90;;;3.60;99.90;;;;;;4902130;29;20677;-78
2021/01/04 11:09:38;;;;;;;1999.90;999.90;;;3.60;99.90;;;;;;4901361;29;20203;-81
2021/01/04 11:12:10;;;;;;;1999.90;999.90;;;3.50;99.90;;;;;;4900736;29;20239;-77
2021/01/04 11:14:38;;;;;;;1999.90;999.90;;;3.60;99.90;;;;;;4900044;29;20207;-79
2021/01/04 11:17:13;;;;;;;1999.90;999.90;;;3.60;99.90;;;;;;4901005;29;20223;-78
2021/01/04 11:19:39;;;;;;;1999.90;999.90;;;3.60;99.90;;;;;;4900114;29;20254;-76
2021/01/04 11:22:18;;;;;;;1999.90;999.90;;;3.50;99.90;;;;;;4898899;29;20228;-79
2021/01/04 11:24:45;;;;;;;1999.90;999.90;;;3.70;99.90;;;;;;4897732;29;20585;-76
2021/01/04 11:27:12;;;;;;;1999.90;999.90;;;3.90;99.90;;;;;;4897527;29;20219;-76
2021/01/04 11:29:40;;;;;;;1999.90;999.90;;;4.00;99.90;;;;;;4897302;29;20211;-77
2021/01/04 11:32:08;;;;;;;1999.90;999.90;;;4.10;99.90;;;;;;4896908;29;20227;-76
2021/01/04 11:34:42;;;;;;;1999.90;999.90;;;4.10;99.90;;;;;;4897388;29;20211;-76
2021/01/04 11:37:11;;;;;;;1999.90;999.90;;;4.10;99.90;;;;;;4897257;29;20596;-75
2021/01/04 11:39:38;;;;;;;1999.90;999.90;;;4.10;99.90;;;;;;4897195;29;20204;-76
2021/01/04 11:42:06;;;;;;;1999.90;999.90;;;4.10;99.90;;;;;;4896857;29;20290;-76
2021/01/04 11:44:32;;;;;;;1999.90;999.90;;;4.10;99.90;;;;;;4896929;29;20203;-75
2021/01/04 11:47:00;;;;;;;1999.90;999.90;;;4.20;99.90;;;;;;4897003;29;20262;-75
2021/01/04 11:49:27;;;;;;;1999.90;999.90;;;4.30;99.90;;;;;;4891720;29;20207;-76
2021/01/04 11:51:55;;;;;;;1999.90;999.90;;;4.30;99.90;;;;;;4896993;29;20250;-76
2021/01/04 11:54:23;;;;;;;1999.90;999.90;;;4.10;99.90;;;;;;4896139;29;20274;-77
2021/01/04 11:56:50;;;;;;;1999.90;999.90;;;4.00;99.90;;;;;;4897984;29;20263;-78
2021/01/04 11:59:18;;;;;;;1999.90;999.90;;;4.00;99.90;;;;;;4903675;29;20274;-78
2021/01/04 12:01:45;;;;;;;1999.90;999.90;;;3.80;99.90;;;;;;4899571;29;20235;-77
2021/01/04 12:04:12;;;;;;;1999.90;999.90;;;3.80;99.90;;;;;;4899424;29;20204;-77
2021/01/04 12:06:40;;;;;;;1999.90;999.90;;;3.90;99.90;;;;;;4898237;29;20264;-77
2021/01/04 12:09:08;;;;;;;1999.90;999.90;;;4.00;99.90;;;;;;4897001;29;20212;-76
2021/01/04 12:11:38;;;;;;;1999.90;999.90;;;3.90;99.90;;;;;;4896776;29;20231;-77
2021/01/04 12:14:06;;;;;;;1999.90;999.90;;;4.10;99.90;;;;;;4896685;29;20295;-77
2021/01/04 12:16:34;;;;;;;1999.90;999.90;;;4.20;99.90;;;;;;4896920;29;20270;-78
2021/01/04 12:19:01;;;;;;;1999.90;999.90;;;4.20;99.90;;;;;;4898201;29;20222;-77
2021/01/04 12:21:28;;;;;;;1999.90;999.90;;;4.20;99.90;;;;;;4898591;29;20223;-77
2021/01/04 12:23:54;;;;;;;1999.90;999.90;;;3.90;99.90;;;;;;4898149;29;20271;-78
2021/01/04 12:26:22;;;;;;;1999.90;999.90;;;3.90;99.90;;;;;;4901107;29;20589;-78
2021/01/04 12:28:50;;;;;;;1999.90;999.90;;;4.00;99.90;;;;;;4903188;29;20207;-78
2021/01/04 12:31:19;;;;;;;1999.90;999.90;;;3.90;99.90;;;;;;4903842;29;20235;-77
2021/01/04 12:33:48;;;;;;;1999.90;999.90;;;3.90;99.90;;;;;;4903441;29;20237;-78
2021/01/04 12:36:17;;;;;;;1999.90;999.90;;;3.80;99.90;;;;;;4903370;29;20239;-77
2021/01/04 12:38:45;;;;;;;1999.90;999.90;;;3.80;99.90;;;;;;4903531;29;20624;-77
2021/01/04 12:41:12;;;;;;;1999.90;999.90;;;3.90;99.90;;;;;;4902777;29;20231;-78
2021/01/04 12:43:39;;;;;;;1999.90;999.90;;;3.80;99.90;;;;;;4902792;29;20228;-77
2021/01/04 12:46:08;;;;;;;1999.90;999.90;;;3.70;99.90;;;;;;4904022;29;20211;-78
2021/01/04 12:48:35;;;;;;;1999.90;999.90;;;3.90;99.90;;;;;;4902033;29;20239;-77
2021/01/04 12:51:02;;;;;;;1999.90;999.90;;;4.10;99.90;;;;;;4903865;29;20235;-78
2021/01/04 12:53:29;;;;;;;1999.90;999.90;;;4.20;99.90;;;;;;4903039;29;20282;-78
2021/01/04 12:55:56;;;;;;;1999.90;999.90;;;4.20;99.90;;;;;;4901820;29;20207;-77
2021/01/04 12:58:24;;;;;;;1999.90;999.90;;;4.30;99.90;;;;;;4900992;29;20218;-77
2021/01/04 13:00:52;;;;;;;1999.90;999.90;;;4.30;99.90;;;;;;4901556;29;20291;-78
2021/01/04 13:03:20;;;;;;;1999.90;999.90;;;4.00;99.90;;;;;;4904489;29;20204;-79
2021/01/04 13:05:47;;;;;;;1999.90;999.90;;;4.00;99.90;;;;;;4924986;29;20199;-80
2021/01/04 13:08:14;;;;;;;1999.90;999.90;;;4.00;99.90;;;;;;4914097;29;20697;-78
2021/01/04 13:10:41;;;;;;;1999.90;999.90;;;4.00;99.90;;;;;;4904545;29;20577;-78
2021/01/04 13:13:08;;;;;;;1999.90;999.90;;;4.10;99.90;;;;;;4903428;29;20688;-78
2021/01/04 13:15:35;;;;;;;1999.90;999.90;;;4.10;99.90;;;;;;4903689;29;20240;-78
2021/01/04 13:18:01;;;;;;;1999.90;999.90;;;4.00;99.90;;;;;;4900397;29;20203;-79
2021/01/04 13:20:29;;;;;;;1999.90;999.90;;;3.80;99.90;;;;;;4900851;29;20237;-76
2021/01/04 13:22:56;;;;;;;1999.90;999.90;;;3.90;99.90;;;;;;4900322;29;20188;-79
2021/01/04 13:25:23;;;;;;;1999.90;999.90;;;3.80;99.90;;;;;;4900891;29;20215;-82
2021/01/04 13:27:50;;;;;;;1999.90;999.90;;;3.70;99.90;;;;;;4903981;29;20579;-80
2021/01/04 13:30:18;;;;;;;1999.90;999.90;;;3.70;99.90;;;;;;4905540;29;20255;-80
2021/01/04 13:32:44;;;;;;;1999.90;999.90;;;3.70;99.90;;;;;;4902411;29;20207;-78
2021/01/04 13:35:12;;;;;;;1999.90;999.90;;;3.70;99.90;;;;;;4901646;29;20612;-81
2021/01/04 13:37:40;;;;;;;1999.90;999.90;;;3.90;99.90;;;;;;4902029;29;20192;-78
2021/01/04 13:40:11;;;;;;;1999.90;999.90;;;3.90;99.90;;;;;;4901292;29;20271;-80
2021/01/04 13:42:38;;;;;;;1999.90;999.90;;;3.80;99.90;;;;;;4903058;29;20646;-80
2021/01/04 13:45:06;;;;;;;1999.90;999.90;;;3.90;99.90;;;;;;4901208;29;20246;-79
2021/01/04 13:47:33;;;;;;;1999.90;999.90;;;4.00;99.90;;;;;;4903005;29;20207;-80
2021/01/04 13:50:00;;;;;;;1999.90;999.90;;;4.00;99.90;;;;;;4903166;29;20191;-82
2021/01/04 13:52:27;;;;;;;1999.90;999.90;;;4.00;99.90;;;;;;4902116;29;20231;-83
2021/01/04 13:54:55;;;;;;;1999.90;999.90;;;4.10;99.90;;;;;;4901963;29;20296;-81
2021/01/04 13:57:25;;;;;;;1999.90;999.90;;;3.90;99.90;;;;;;4903449;29;20214;-81
2021/01/04 13:59:52;;;;;;;1999.90;999.90;;;4.00;99.90;;;;;;4902967;29;20191;-80
2021/01/04 14:02:19;;;;;;;1999.90;999.90;;;4.00;99.90;;;;;;4903826;29;20235;-81
2021/01/04 14:04:49;;;;;;;1999.90;999.90;;;4.00;99.90;;;;;;4902901;29;20210;-78
2021/01/04 14:07:16;;;;;;;1999.90;999.90;;;4.10;99.90;;;;;;4901769;29;20211;-78
2021/01/04 14:09:47;;;;;;;1999.90;999.90;;;4.10;99.90;;;;;;4902389;29;20215;-80
2021/01/04 14:12:16;;;;;;;1999.90;999.90;;;4.10;99.90;;;;;;4902599;29;20238;-79
2021/01/04 14:14:42;;;;;;;1999.90;999.90;;;4.20;99.90;;;;;;4901836;29;20247;-78
2021/01/04 14:17:09;;;;;;;1999.90;999.90;;;4.20;99.90;;;;;;4902404;29;20214;-81
2021/01/04 14:19:36;;;;;;;1999.90;999.90;;;4.20;99.90;;;;;;4903361;29;20267;-80
2021/01/04 14:22:03;;;;;;;1999.90;999.90;;;4.20;99.90;;;;;;4903300;29;20268;-80
2021/01/04 14:24:31;;;;;;;1999.90;999.90;;;4.30;99.90;;;;;;4902709;29;20278;-79
2021/01/04 14:27:02;;;;;;;1999.90;999.90;;;4.20;99.90;;;;;;4902654;29;20255;-81
2021/01/04 14:29:31;;;;;;;1999.90;999.90;;;4.20;99.90;;;;;;4902027;29;20224;-80
2021/01/04 14:31:58;;;;;;;1999.90;999.90;;;4.10;99.90;;;;;;4901141;29;20227;-80
2021/01/04 14:34:26;;;;;;;1999.90;999.90;;;4.10;99.90;;;;;;4899173;29;20693;-79
2021/01/04 14:36:53;;;;;;;1999.90;999.90;;;4.20;99.90;;;;;;4899348;29;20227;-79
2021/01/04 14:39:20;;;;;;;1999.90;999.90;;;4.00;99.90;;;;;;4901601;29;20207;-79
2021/01/04 14:41:57;;;;;;;1999.90;999.90;;;4.10;99.90;;;;;;4899070;29;20291;-79
2021/01/04 14:44:24;;;;;;;1999.90;999.90;;;4.00;99.90;;;;;;4899054;29;20210;-79
2021/01/04 14:46:59;;;;;;;1999.90;999.90;;;4.10;99.90;;;;;;4898809;29;20192;-79
2021/01/04 14:49:26;;;;;;;1999.90;999.90;;;4.10;99.90;;;;;;4899187;29;20267;-80
2021/01/04 14:51:54;;;;;;;1999.90;999.90;;;4.10;99.90;;;;;;4899835;29;20227;-79
2021/01/04 14:54:21;;;;;;;1999.90;999.90;;;4.10;99.90;;;;;;4902002;29;20234;-80
2021/01/04 14:56:48;;;;;;;1999.90;999.90;;;4.00;99.90;;;;;;4904449;29;20204;-79
2021/01/04 14:59:15;;;;;;;1999.90;999.90;;;3.90;99.90;;;;;;4902508;29;20287;-81
2021/01/04 15:01:42;;;;;;;1999.90;999.90;;;3.90;99.90;;;;;;4902226;29;20589;-80
2021/01/04 15:04:10;;;;;;;1999.90;999.90;;;3.80;99.90;;;;;;4896418;29;20262;-78
2021/01/04 15:06:37;;;;;;;1999.90;999.90;;;3.80;99.90;;;;;;4896624;29;20192;-77
2021/01/04 15:09:05;;;;;;;1999.90;999.90;;;3.80;99.90;;;;;;4895240;29;20288;-79
2021/01/04 15:11:32;;;;;;;1999.90;999.90;;;3.90;99.90;;;;;;4895876;29;20231;-77
2021/01/04 15:13:59;;;;;;;1999.90;999.90;;;4.00;99.90;;;;;;4895545;29;20323;-77
2021/01/04 15:16:26;;;;;;;1999.90;999.90;;;4.20;99.90;;;;;;4895469;29;20203;-77
2021/01/04 15:18:53;;;;;;;1999.90;999.90;;;4.10;99.90;;;;;;4895757;29;20255;-78
2021/01/04 15:21:22;;;;;;;1999.90;999.90;;;4.20;99.90;;;;;;4893494;29;20226;-77
2021/01/04 15:23:49;;;;;;;1999.90;999.90;;;4.00;99.90;;;;;;4897101;29;20255;-77
2021/01/04 15:26:20;;;;;;;1999.90;999.90;;;4.00;99.90;;;;;;4896654;29;20776;-77
2021/01/04 15:28:47;;;;;;;1999.90;999.90;;;4.00;99.90;;;;;;4897523;29;20195;-77
2021/01/04 15:31:14;;;;;;;1999.90;999.90;;;4.10;99.90;;;;;;4897468;29;20298;-77
2021/01/04 15:33:41;;;;;;;1999.90;999.90;;;4.10;99.90;;;;;;4897901;29;20212;-78
2021/01/04 15:36:09;;;;;;;1999.90;999.90;;;4.20;99.90;;;;;;4898054;29;20203;-77
2021/01/04 15:38:37;;;;;;;1999.90;999.90;;;4.20;99.90;;;;;;4897647;29;20195;-78
2021/01/04 15:41:05;;;;;;;1999.90;999.90;;;4.30;99.90;;;;;;4898824;29;20271;-78
2021/01/04 15:43:32;;;;;;;1999.90;999.90;;;4.40;99.90;;;;;;4898539;29;20200;-78
2021/01/04 15:45:59;;;;;;;1999.90;999.90;;;4.40;99.90;;;;;;4895612;29;20207;-78
2021/01/04 15:48:25;;;;;;;1999.90;999.90;;;4.30;99.90;;;;;;4897379;29;20199;-78
2021/01/04 15:50:52;;;;;;;1999.90;999.90;;;4.40;99.90;;;;;;4897055;29;20287;-76
2021/01/04 15:53:19;;;;;;;1999.90;999.90;;;4.40;99.90;;;;;;4897009;29;20222;-76
2021/01/04 15:55:47;;;;;;;1999.90;999.90;;;4.40;99.90;;;;;;4897048;29;20470;-76
2021/01/04 15:58:14;;;;;;;1999.90;999.90;;;4.30;99.90;;;;;;4898717;29;20203;-77
2021/01/04 16:00:40;;;;;;;1999.90;999.90;;;4.40;99.90;;;;;;4895908;29;20231;-76
2021/01/04 16:03:08;;;;;;;1999.90;999.90;;;4.50;99.90;;;;;;4896219;29;20203;-76
2021/01/04 16:05:35;;;;;;;1999.90;999.90;;;4.60;99.90;;;;;;4893727;29;20616;-75
2021/01/04 16:08:01;;;;;;;1999.90;999.90;;;4.60;99.90;;;;;;4896798;29;20203;-77
2021/01/04 16:10:28;;;;;;;1999.90;999.90;;;4.60;99.90;;;;;;4894798;29;20203;-77
2021/01/04 16:12:56;;;;;;;1999.90;999.90;;;4.60;99.90;;;;;;4895816;29;20203;-76
2021/01/04 16:15:23;;;;;;;1999.90;999.90;;;4.70;99.90;;;;;;4896599;29;20263;-77
2021/01/04 16:17:50;;;;;;;1999.90;999.90;;;4.60;99.90;;;;;;4895597;29;20855;-77
2021/01/04 16:20:22;;;;;;;1999.90;999.90;;;4.60;99.90;;;;;;4894810;29;20214;-76
2021/01/04 16:22:49;;;;;;;1999.90;999.90;;;4.50;99.90;;;;;;4896691;29;20259;-77
2021/01/04 16:25:17;;;;;;;1999.90;999.90;;;4.50;99.90;;;;;;4896605;29;20260;-77
2021/01/04 16:27:59;;;;;;;1999.90;999.90;;;4.50;99.90;;;;;;4896584;29;20195;-76
2021/01/04 16:30:26;;;;;;;1999.90;999.90;;;4.60;99.90;;;;;;4896517;29;20211;-77
2021/01/04 16:32:53;;;;;;;1999.90;999.90;;;4.60;99.90;;;;;;4892032;29;20215;-81
2021/01/04 16:35:21;;;;;;;1999.90;999.90;;;4.50;99.90;;;;;;4896173;29;20595;-81
2021/01/04 16:37:50;;;;;;;1999.90;999.90;;;4.50;99.90;;;;;;4898289;29;20195;-77
2021/01/04 16:40:18;;;;;;;1999.90;999.90;;;4.70;99.90;;;;;;4903767;29;20199;-80
2021/01/04 16:42:53;;;;;;;1999.90;999.90;;;4.70;99.90;;;;;;4915313;29;20206;-78
2021/01/04 16:45:21;;;;;;;1999.90;999.90;;;4.70;99.90;;;;;;4911601;29;20211;-76
2021/01/04 16:47:47;;;;;;;1999.90;999.90;;;4.70;99.90;;;;;;4896173;29;20554;-77
2021/01/04 16:50:15;;;;;;;1999.90;999.90;;;4.70;99.90;;;;;;4897738;29;20625;-77
2021/01/04 16:52:43;;;;;;;1999.90;999.90;;;4.70;99.90;;;;;;4898369;29;20207;-77
2021/01/04 16:55:11;;;;;;;1999.90;999.90;;;4.70;99.90;;;;;;4896336;29;20220;-77
2021/01/04 16:57:38;;;;;;;1999.90;999.90;;;4.70;99.90;;;;;;4897720;29;20207;-76
2021/01/04 17:00:07;;;;;;;1999.90;999.90;;;4.70;99.90;;;;;;4900745;29;20259;-77
2021/01/04 17:02:34;;;;;;;1999.90;999.90;;;4.70;99.90;;;;;;4896664;29;20592;-77
2021/01/04 17:05:01;;;;;;;1999.90;999.90;;;4.80;99.90;;;;;;4896371;29;20240;-77
2021/01/04 17:07:29;;;;;;;1999.90;999.90;;;4.80;99.90;;;;;;4897350;29;20267;-77
2021/01/04 17:09:56;;;;;;;1999.90;999.90;;;4.70;99.90;;;;;;4895872;29;20268;-77
2021/01/04 17:12:22;;;;;;;1999.90;999.90;;;4.80;99.90;;;;;;4899408;29;20255;-77
2021/01/04 17:14:49;;;;;;;1999.90;999.90;;;4.80;99.90;;;;;;4901288;29;20223;-81
2021/01/04 17:17:16;;;;;;;1999.90;999.90;;;4.90;99.90;;;;;;4905108;29;20795;-76
2021/01/04 17:19:44;;;;;;;1999.90;999.90;;;4.90;99.90;;;;;;4918726;29;20235;-76
2021/01/04 17:22:11;;;;;;;1999.90;999.90;;;4.90;99.90;;;;;;4918933;29;20227;-79
2021/01/04 17:24:38;;;;;;;1999.90;999.90;;;4.80;99.90;;;;;;4910238;29;20207;-80
2021/01/04 17:27:06;;;;;;;1999.90;999.90;;;4.80;99.90;;;;;;4902010;29;20211;-82
2021/01/04 17:29:33;;;;;;;1999.90;999.90;;;4.70;99.90;;;;;;4899041;29;20207;-80
2021/01/04 17:32:00;;;;;;;1999.90;999.90;;;4.60;99.90;;;;;;4898513;29;20227;-77
2021/01/04 17:34:27;;;;;;;1999.90;999.90;;;4.50;99.90;;;;;;4899200;29;20235;-77
2021/01/04 17:36:56;;;;;;;1999.90;999.90;;;4.60;99.90;;;;;;4899305;29;20259;-78
2021/01/04 17:39:23;;;;;;;1999.90;999.90;;;4.70;99.90;;;;;;4900524;29;20211;-77